Time;durP1;ratioP1;P1;durP2;ratioP2;P2;SDS_P1;SDS_P2;PMS_P1;PMS_P2;Temp;Humidity;BMP_temperature;BMP_pressure;BME280_temperature;BME280_humidity;BME280_pressure;Samples;Min_cycle;Max_cycle;Signal;HPM_P1;HPM_P2
2023/04/03 00:02:23;;;;;;;;;;;;;;;;;;5033516;28;19939;-81
2023/04/03 00:04:51;;;;;;;;;;;;;;;;;;5029682;28;20432;-81
2023/04/03 00:07:18;;;;;;;;;;;;;;;;;;5030271;28;19925;-81
2023/04/03 00:09:46;;;;;;;;;;;;;;;;;;5030981;28;20318;-82
2023/04/03 00:12:13;;;;;;;;;;;;;;;;;;5030783;28;20298;-81
2023/04/03 00:14:41;;;;;;;;;;;;;;;;;;5032882;28;19925;-81
2023/04/03 00:17:08;;;;;;;;;;;;;;;;;;5031529;28;19933;-81
2023/04/03 00:19:36;;;;;;;;;;;;;;;;;;5032164;28;20373;-81
2023/04/03 00:22:03;;;;;;;;;;;;;;;;;;5029359;28;19925;-81
2023/04/03 00:24:31;;;;;;;;;;;;;;;;;;5029500;28;19925;-82
2023/04/03 00:26:58;;;;;;;;;;;;;;;;;;5035194;28;19932;-80
2023/04/03 00:29:26;;;;;;;;;;;;;;;;;;5029445;28;20354;-81
2023/04/03 00:31:53;;;;;;;;;;;;;;;;;;5029063;28;19929;-81
2023/04/03 00:34:21;;;;;;;;;;;;;;;;;;5029775;28;19932;-82
2023/04/03 00:36:48;;;;;;;;;;;;;;;;;;5027611;28;19929;-81
2023/04/03 00:39:16;;;;;;;;;;;;;;;;;;5027708;28;19925;-80
2023/04/03 00:41:48;;;;;;;;;;;;;;;;;;5030252;28;20290;-81
2023/04/03 00:44:16;;;;;;;;;;;;;;;;;;5026008;28;19933;-81
2023/04/03 00:46:48;;;;;;;;;;;;;;;;;;5030421;28;19929;-81
2023/04/03 00:49:16;;;;;;;;;;;;;;;;;;5026079;28;19925;-81
2023/04/03 00:51:43;;;;;;;;;;;;;;;;;;5022725;28;20297;-81
2023/04/03 00:54:16;;;;;;;;;;;;;;;;;;5044481;28;19932;-81
2023/04/03 00:56:44;;;;;;;;;;;;;;;;;;5028023;28;19925;-81
2023/04/03 00:59:16;;;;;;;;;;;;;;;;;;5043113;28;19925;-81
2023/04/03 01:01:49;;;;;;;;;;;;;;;;;;5028526;28;19932;-81
2023/04/03 01:04:22;;;;;;;;;;;;;;;;;;5024544;28;19925;-80
2023/04/03 01:06:50;;;;;;;;;;;;;;;;;;5030528;28;19929;-80
2023/04/03 01:09:17;;;;;;;;;;;;;;;;;;5024201;28;19925;-81
2023/04/03 01:11:45;;;;;;;;;;;;;;;;;;5034291;28;19942;-81
2023/04/03 01:14:18;;;;;;;;;;;;;;;;;;5037092;28;20392;-81
2023/04/03 01:16:50;;;;;;;;;;;;;;;;;;5028542;28;19929;-81
2023/04/03 01:19:17;;;;;;;;;;;;;;;;;;5028471;28;20302;-81
2023/04/03 01:21:46;;;;;;;;;;;;;;;;;;5044238;28;19933;-81
2023/04/03 01:24:14;;;;;;;;;;;;;;;;;;5030147;28;20653;-81
2023/04/03 01:26:46;;;;;;;;;;;;;;;;;;5027697;28;20389;-82
2023/04/03 01:29:19;;;;;;;;;;;;;;;;;;5032150;28;19925;-81
2023/04/03 01:31:51;;;;;;;;;;;;;;;;;;5027364;28;19929;-81
2023/04/03 01:34:19;;;;;;;;;;;;;;;;;;5029710;28;20298;-82
2023/04/03 01:36:52;;;;;;;;;;;;;;;;;;5026590;28;19925;-81
2023/04/03 01:39:20;;;;;;;;;;;;;;;;;;5027439;28;19940;-80
2023/04/03 01:41:47;;;;;;;;;;;;;;;;;;5025247;28;19925;-81
2023/04/03 01:44:26;;;;;;;;;;;;;;;;;;5043026;28;19936;-81
2023/04/03 01:46:53;;;;;;;;;;;;;;;;;;5029042;28;19940;-81
2023/04/03 01:49:28;;;;;;;;;;;;;;;;;;5042703;28;19932;-81
2023/04/03 01:52:00;;;;;;;;;;;;;;;;;;5028025;28;20503;-80
2023/04/03 01:54:28;;;;;;;;;;;;;;;;;;5044688;28;19936;-80
2023/04/03 01:56:56;;;;;;;;;;;;;;;;;;5026939;28;19933;-81
2023/04/03 01:59:29;;;;;;;;;;;;;;;;;;5028738;28;19929;-81
2023/04/03 02:01:56;;;;;;;;;;;;;;;;;;5028610;28;19925;-81
2023/04/03 02:04:24;;;;;;;;;;;;;;;;;;5041610;28;19929;-81
2023/04/03 02:06:51;;;;;;;;;;;;;;;;;;5029905;28;19932;-82
2023/04/03 02:09:19;;;;;;;;;;;;;;;;;;5028381;28;19929;-81
2023/04/03 02:11:46;;;;;;;;;;;;;;;;;;5027854;28;19926;-81
2023/04/03 02:14:14;;;;;;;;;;;;;;;;;;5027170;28;19925;-81
2023/04/03 02:16:46;;;;;;;;;;;;;;;;;;5028426;28;20400;-81
2023/04/03 02:19:21;;;;;;;;;;;;;;;;;;5029623;28;19933;-81
2023/04/03 02:21:53;;;;;;;;;;;;;;;;;;5026732;28;19944;-81
2023/04/03 02:24:21;;;;;;;;;;;;;;;;;;5019517;28;19933;-81
2023/04/03 02:26:48;;;;;;;;;;;;;;;;;;5028385;28;19936;-81
2023/04/03 02:29:16;;;;;;;;;;;;;;;;;;5026866;28;19933;-81
2023/04/03 02:31:43;;;;;;;;;;;;;;;;;;5029457;28;20428;-81
2023/04/03 02:34:11;;;;;;;;;;;;;;;;;;5042999;28;19926;-81
2023/04/03 02:36:44;;;;;;;;;;;;;;;;;;5030461;28;20298;-81
2023/04/03 02:39:19;;;;;;;;;;;;;;;;;;5031980;28;20404;-81
2023/04/03 02:41:52;;;;;;;;;;;;;;;;;;5032461;28;19929;-82
2023/04/03 02:44:24;;;;;;;;;;;;;;;;;;5032314;28;19933;-81
2023/04/03 02:46:56;;;;;;;;;;;;;;;;;;5028507;28;19936;-81
2023/04/03 02:49:24;;;;;;;;;;;;;;;;;;5033619;28;19945;-81
2023/04/03 02:51:51;;;;;;;;;;;;;;;;;;5030122;28;19940;-81
2023/04/03 02:54:27;;;;;;;;;;;;;;;;;;5030339;28;19925;-81
2023/04/03 02:56:56;;;;;;;;;;;;;;;;;;5031501;28;19940;-81
2023/04/03 02:59:23;;;;;;;;;;;;;;;;;;5034322;28;20381;-81
2023/04/03 03:01:51;;;;;;;;;;;;;;;;;;5032642;28;19936;-81
2023/04/03 03:04:18;;;;;;;;;;;;;;;;;;5030327;28;19933;-82
2023/04/03 03:06:52;;;;;;;;;;;;;;;;;;5046971;28;19936;-82
2023/04/03 03:09:19;;;;;;;;;;;;;;;;;;5032594;28;19926;-81
2023/04/03 03:11:52;;;;;;;;;;;;;;;;;;5034304;28;19925;-81
2023/04/03 03:14:19;;;;;;;;;;;;;;;;;;5030759;28;19926;-81
2023/04/03 03:16:52;;;;;;;;;;;;;;;;;;5032892;28;20743;-82
2023/04/03 03:19:20;;;;;;;;;;;;;;;;;;5033077;28;19929;-81
2023/04/03 03:21:47;;;;;;;;;;;;;;;;;;5044653;28;19926;-81
2023/04/03 03:24:20;;;;;;;;;;;;;;;;;;5032830;28;19937;-81
2023/04/03 03:26:53;;;;;;;;;;;;;;;;;;5047432;28;19932;-81
2023/04/03 03:29:20;;;;;;;;;;;;;;;;;;5030365;28;19937;-82
2023/04/03 03:31:53;;;;;;;;;;;;;;;;;;5028456;28;20385;-81
2023/04/03 03:34:26;;;;;;;;;;;;;;;;;;5030279;28;19929;-81
2023/04/03 03:36:53;;;;;;;;;;;;;;;;;;5036744;28;19925;-82
2023/04/03 03:39:21;;;;;;;;;;;;;;;;;;5031410;28;19929;-82
2023/04/03 03:41:54;;;;;;;;;;;;;;;;;;5030036;28;19936;-82
2023/04/03 03:44:21;;;;;;;;;;;;;;;;;;5030567;28;19929;-82
2023/04/03 03:46:49;;;;;;;;;;;;;;;;;;5044930;28;19929;-82
2023/04/03 03:49:22;;;;;;;;;;;;;;;;;;5030093;28;19925;-81
2023/04/03 03:51:55;;;;;;;;;;;;;;;;;;5033000;28;19925;-82
2023/04/03 03:54:22;;;;;;;;;;;;;;;;;;5038224;28;19925;-82
2023/04/03 03:56:51;;;;;;;;;;;;;;;;;;5048183;28;20348;-82
2023/04/03 03:59:18;;;;;;;;;;;;;;;;;;5030440;28;19936;-82
2023/04/03 04:01:51;;;;;;;;;;;;;;;;;;5027938;28;20345;-82
2023/04/03 04:04:18;;;;;;;;;;;;;;;;;;5031637;28;19925;-83
2023/04/03 04:06:51;;;;;;;;;;;;;;;;;;5035200;28;19932;-82
2023/04/03 04:09:19;;;;;;;;;;;;;;;;;;5043444;28;19940;-82
2023/04/03 04:11:51;;;;;;;;;;;;;;;;;;5047424;28;19936;-83
2023/04/03 04:14:20;;;;;;;;;;;;;;;;;;5031536;28;19925;-83
2023/04/03 04:16:52;;;;;;;;;;;;;;;;;;5045356;28;19925;-83
2023/04/03 04:19:24;;;;;;;;;;;;;;;;;;5032329;28;20370;-83
2023/04/03 04:21:51;;;;;;;;;;;;;;;;;;5027637;28;19925;-83
2023/04/03 04:24:24;;;;;;;;;;;;;;;;;;5029708;28;19932;-83
2023/04/03 04:26:54;;;;;;;;;;;;;;;;;;5046656;28;19925;-82
2023/04/03 04:29:26;;;;;;;;;;;;;;;;;;5030459;28;19925;-83
2023/04/03 04:31:54;;;;;;;;;;;;;;;;;;5030116;28;20377;-83
2023/04/03 04:34:22;;;;;;;;;;;;;;;;;;5043287;28;20420;-83
2023/04/03 04:36:50;;;;;;;;;;;;;;;;;;5030233;28;19925;-83
2023/04/03 04:39:22;;;;;;;;;;;;;;;;;;5024261;28;19925;-82
2023/04/03 04:41:50;;;;;;;;;;;;;;;;;;5030923;28;20282;-82
2023/04/03 04:44:18;;;;;;;;;;;;;;;;;;5028803;28;19925;-83
2023/04/03 04:46:45;;;;;;;;;;;;;;;;;;5030556;28;19948;-83
2023/04/03 04:49:13;;;;;;;;;;;;;;;;;;5030975;28;19925;-83
2023/04/03 04:51:40;;;;;;;;;;;;;;;;;;5031334;28;19925;-83
2023/04/03 04:54:09;;;;;;;;;;;;;;;;;;5031157;28;19925;-83
2023/04/03 04:56:41;;;;;;;;;;;;;;;;;;5025809;28;19929;-83
2023/04/03 04:59:09;;;;;;;;;;;;;;;;;;5030259;28;19936;-83
2023/04/03 05:01:36;;;;;;;;;;;;;;;;;;5018864;28;19976;-83
2023/04/03 05:04:09;;;;;;;;;;;;;;;;;;5041526;28;19925;-82
2023/04/03 05:06:36;;;;;;;;;;;;;;;;;;5042223;28;19929;-83
2023/04/03 05:09:08;;;;;;;;;;;;;;;;;;5044990;28;19929;-82
2023/04/03 05:11:36;;;;;;;;;;;;;;;;;;5026622;28;19925;-83
2023/04/03 05:14:08;;;;;;;;;;;;;;;;;;5025050;28;20379;-82
2023/04/03 05:16:36;;;;;;;;;;;;;;;;;;5043999;28;19925;-82
2023/04/03 05:19:04;;;;;;;;;;;;;;;;;;5031289;28;20615;-83
2023/04/03 05:21:32;;;;;;;;;;;;;;;;;;5023877;28;19936;-82
2023/04/03 05:24:04;;;;;;;;;;;;;;;;;;5034953;28;19932;-83
2023/04/03 05:26:33;;;;;;;;;;;;;;;;;;5020850;28;19941;-82
2023/04/03 05:29:07;;;;;;;;;;;;;;;;;;5028154;28;19936;-82
2023/04/03 05:31:34;;;;;;;;;;;;;;;;;;5024877;28;19936;-83
2023/04/03 05:34:09;;;;;;;;;;;;;;;;;;5043056;28;19936;-83
2023/04/03 05:36:38;;;;;;;;;;;;;;;;;;5046621;28;19925;-82
2023/04/03 05:39:07;;;;;;;;;;;;;;;;;;5029449;28;19941;-82
2023/04/03 05:41:38;;;;;;;;;;;;;;;;;;5044290;28;19933;-82
2023/04/03 05:44:05;;;;;;;;;;;;;;;;;;5027517;28;19925;-82
2023/04/03 05:46:33;;;;;;;;;;;;;;;;;;5026650;28;19937;-82
2023/04/03 05:49:04;;;;;;;;;;;;;;;;;;5029299;28;19932;-82
2023/04/03 05:51:37;;;;;;;;;;;;;;;;;;5027699;28;19929;-82
2023/04/03 05:54:12;;;;;;;;;;;;;;;;;;5026970;28;20321;-82
2023/04/03 05:56:45;;;;;;;;;;;;;;;;;;5045151;28;20294;-82
2023/04/03 05:59:18;;;;;;;;;;;;;;;;;;5028583;28;19925;-82
2023/04/03 06:01:46;;;;;;;;;;;;;;;;;;5029072;28;19925;-82
2023/04/03 06:04:13;;;;;;;;;;;;;;;;;;5025488;28;19925;-82
2023/04/03 06:06:46;;;;;;;;;;;;;;;;;;5041295;28;20305;-83
2023/04/03 06:09:13;;;;;;;;;;;;;;;;;;5029054;28;19932;-82
2023/04/03 06:11:41;;;;;;;;;;;;;;;;;;5041901;28;19937;-81
2023/04/03 06:14:09;;;;;;;;;;;;;;;;;;5039088;28;20390;-82
2023/04/03 06:16:36;;;;;;;;;;;;;;;;;;5025039;28;19925;-82
2023/04/03 06:19:09;;;;;;;;;;;;;;;;;;5028863;28;19929;-82
2023/04/03 06:21:45;;;;;;;;;;;;;;;;;;5018395;28;20586;-84
2023/04/03 06:24:12;;;;;;;;;;;;;;;;;;5041902;28;20294;-82
2023/04/03 06:26:40;;;;;;;;;;;;;;;;;;5020741;28;19929;-83
2023/04/03 06:29:08;;;;;;;;;;;;;;;;;;5023955;28;20406;-82
2023/04/03 06:31:40;;;;;;;;;;;;;;;;;;5024237;28;19929;-83
2023/04/03 06:34:08;;;;;;;;;;;;;;;;;;5035774;28;19925;-83
2023/04/03 06:36:36;;;;;;;;;;;;;;;;;;5024752;28;19925;-81
2023/04/03 06:39:03;;;;;;;;;;;;;;;;;;5029706;28;19936;-82
2023/04/03 06:41:31;;;;;;;;;;;;;;;;;;5024348;28;19941;-81
2023/04/03 06:44:03;;;;;;;;;;;;;;;;;;5042689;28;19952;-82
2023/04/03 06:46:31;;;;;;;;;;;;;;;;;;5025000;28;19933;-82
2023/04/03 06:48:58;;;;;;;;;;;;;;;;;;5022340;28;20325;-81
2023/04/03 06:51:26;;;;;;;;;;;;;;;;;;5030261;28;19925;-86
2023/04/03 06:53:54;;;;;;;;;;;;;;;;;;5027790;28;19948;-81
2023/04/03 06:56:27;;;;;;;;;;;;;;;;;;5042037;28;19932;-81
2023/04/03 06:58:56;;;;;;;;;;;;;;;;;;5040872;28;19925;-81
2023/04/03 07:01:24;;;;;;;;;;;;;;;;;;5027760;28;19933;-83
2023/04/03 07:03:52;;;;;;;;;;;;;;;;;;5010602;28;19940;-81
2023/04/03 07:06:19;;;;;;;;;;;;;;;;;;5000314;28;19953;-81
2023/04/03 07:08:52;;;;;;;;;;;;;;;;;;5018794;28;19933;-80
2023/04/03 07:11:20;;;;;;;;;;;;;;;;;;5018974;28;19933;-82
2023/04/03 07:13:53;;;;;;;;;;;;;;;;;;5006207;28;19933;-81
2023/04/03 07:16:20;;;;;;;;;;;;;;;;;;5006819;28;20762;-83
2023/04/03 07:18:53;;;;;;;;;;;;;;;;;;5007765;28;20616;-82
2023/04/03 07:21:25;;;;;;;;;;;;;;;;;;5012431;28;19940;-82
2023/04/03 07:23:58;;;;;;;;;;;;;;;;;;5019832;28;19933;-82
2023/04/03 07:26:25;;;;;;;;;;;;;;;;;;5005403;28;19929;-82
2023/04/03 07:28:53;;;;;;;;;;;;;;;;;;5023085;28;21023;-81
2023/04/03 07:31:21;;;;;;;;;;;;;;;;;;5009513;28;19933;-81
2023/04/03 07:33:48;;;;;;;;;;;;;;;;;;5006610;28;19933;-82
2023/04/03 07:36:16;;;;;;;;;;;;;;;;;;5021072;28;19933;-82
2023/04/03 07:38:43;;;;;;;;;;;;;;;;;;5008585;28;19933;-81
2023/04/03 07:41:11;;;;;;;;;;;;;;;;;;5013503;28;19945;-82
2023/04/03 07:43:38;;;;;;;;;;;;;;;;;;5008561;28;19933;-81
2023/04/03 07:46:06;;;;;;;;;;;;;;;;;;5009489;28;19933;-81
2023/04/03 07:48:34;;;;;;;;;;;;;;;;;;5017468;28;19929;-81
2023/04/03 07:51:07;;;;;;;;;;;;;;;;;;5005732;28;19933;-81
2023/04/03 07:53:40;;;;;;;;;;;;;;;;;;5024779;28;19987;-81
2023/04/03 07:56:12;;;;;;;;;;;;;;;;;;5003873;28;21449;-82
2023/04/03 07:58:40;;;;;;;;;;;;;;;;;;5007128;28;20563;-81
2023/04/03 08:01:07;;;;;;;;;;;;;;;;;;5019763;28;20281;-82
2023/04/03 08:03:37;;;;;;;;;;;;;;;;;;4980623;28;19933;-81
2023/04/03 08:06:04;;;;;;;;;;;;;;;;;;5009043;28;19965;-81
2023/04/03 08:08:32;;;;;;;;;;;;;;;;;;5010596;28;20289;-81
2023/04/03 08:11:00;;;;;;;;;;;;;;;;;;5008630;28;19933;-80
2023/04/03 08:13:27;;;;;;;;;;;;;;;;;;5004258;28;19933;-81
2023/04/03 08:15:56;;;;;;;;;;;;;;;;;;5023586;28;20523;-81
2023/04/03 08:18:29;;;;;;;;;;;;;;;;;;5008090;28;19939;-81
2023/04/03 08:20:57;;;;;;;;;;;;;;;;;;5001992;28;21218;-81
2023/04/03 08:23:29;;;;;;;;;;;;;;;;;;5004008;28;21401;-81
2023/04/03 08:26:02;;;;;;;;;;;;;;;;;;5005058;28;19933;-83
2023/04/03 08:28:29;;;;;;;;;;;;;;;;;;5006817;28;19933;-81
2023/04/03 08:30:57;;;;;;;;;;;;;;;;;;5013602;28;19933;-81
2023/04/03 08:33:24;;;;;;;;;;;;;;;;;;5008603;28;20907;-81
2023/04/03 08:35:52;;;;;;;;;;;;;;;;;;5013148;28;19941;-81
2023/04/03 08:38:19;;;;;;;;;;;;;;;;;;5009378;28;19933;-81
2023/04/03 08:40:47;;;;;;;;;;;;;;;;;;5008230;28;21416;-82
2023/04/03 08:43:20;;;;;;;;;;;;;;;;;;5025648;28;19937;-81
2023/04/03 08:45:47;;;;;;;;;;;;;;;;;;5006758;28;19933;-82
2023/04/03 08:48:21;;;;;;;;;;;;;;;;;;5025622;28;19933;-81
2023/04/03 08:50:49;;;;;;;;;;;;;;;;;;5011299;28;19944;-81
2023/04/03 08:53:22;;;;;;;;;;;;;;;;;;5010142;28;19933;-81
2023/04/03 08:55:49;;;;;;;;;;;;;;;;;;5008458;28;19929;-81
2023/04/03 08:58:17;;;;;;;;;;;;;;;;;;5011123;28;19933;-82
2023/04/03 09:00:45;;;;;;;;;;;;;;;;;;4996584;28;19933;-81
2023/04/03 09:03:18;;;;;;;;;;;;;;;;;;4997352;28;19944;-81
2023/04/03 09:05:50;;;;;;;;;;;;;;;;;;5010693;28;19929;-81
2023/04/03 09:08:18;;;;;;;;;;;;;;;;;;5010250;28;19940;-81
2023/04/03 09:11:08;;;;;;;;;;;;;;;;;;5004277;28;19932;-84
2023/04/03 09:13:38;;;;;;;;;;;;;;;;;;5010216;28;19960;-81
2023/04/03 09:16:06;;;;;;;;;;;;;;;;;;5004441;28;19933;-80
2023/04/03 09:18:39;;;;;;;;;;;;;;;;;;5026920;28;20545;-81
2023/04/03 09:21:12;;;;;;;;;;;;;;;;;;5011195;28;19933;-80
2023/04/03 09:23:39;;;;;;;;;;;;;;;;;;5007879;28;19933;-80
2023/04/03 09:26:07;;;;;;;;;;;;;;;;;;5001437;28;19940;-80
2023/04/03 09:28:34;;;;;;;;;;;;;;;;;;5024522;28;19929;-80
2023/04/03 09:31:02;;;;;;;;;;;;;;;;;;5018588;28;19929;-81
2023/04/03 09:33:29;;;;;;;;;;;;;;;;;;5027058;28;19925;-81
2023/04/03 09:35:57;;;;;;;;;;;;;;;;;;5027939;28;19925;-80
2023/04/03 09:38:31;;;;;;;;;;;;;;;;;;5027147;28;19960;-80
2023/04/03 09:40:58;;;;;;;;;;;;;;;;;;5027789;28;20354;-80
2023/04/03 09:43:26;;;;;;;;;;;;;;;;;;5026926;28;19929;-81
2023/04/03 09:45:53;;;;;;;;;;;;;;;;;;5034185;28;19933;-80
2023/04/03 09:48:21;;;;;;;;;;;;;;;;;;5031057;28;19926;-80
2023/04/03 09:50:48;;;;;;;;;;;;;;;;;;5030121;28;19936;-81
2023/04/03 09:53:21;;;;;;;;;;;;;;;;;;5027928;28;20690;-81
2023/04/03 09:55:49;;;;;;;;;;;;;;;;;;5030865;28;19936;-82
2023/04/03 09:58:21;;;;;;;;;;;;;;;;;;5028395;28;19932;-80
2023/04/03 10:00:49;;;;;;;;;;;;;;;;;;5030234;28;19929;-81
2023/04/03 10:03:21;;;;;;;;;;;;;;;;;;5028232;28;20401;-80
2023/04/03 10:05:50;;;;;;;;;;;;;;;;;;5032396;28;20374;-81
2023/04/03 10:08:18;;;;;;;;;;;;;;;;;;5023290;28;20420;-82
2023/04/03 10:10:46;;;;;;;;;;;;;;;;;;5024998;28;19948;-79
2023/04/03 10:13:16;;;;;;;;;;;;;;;;;;5029348;28;19936;-80
2023/04/03 10:15:44;;;;;;;;;;;;;;;;;;5031258;28;19940;-82
2023/04/03 10:18:12;;;;;;;;;;;;;;;;;;5030146;28;19925;-80
2023/04/03 10:20:40;;;;;;;;;;;;;;;;;;5046144;28;20412;-82
2023/04/03 10:23:08;;;;;;;;;;;;;;;;;;5029098;28;19933;-80
2023/04/03 10:25:35;;;;;;;;;;;;;;;;;;5030317;28;19931;-81
2023/04/03 10:28:03;;;;;;;;;;;;;;;;;;5029892;28;19925;-81
2023/04/03 10:30:30;;;;;;;;;;;;;;;;;;5029999;28;19925;-81
2023/04/03 10:33:03;;;;;;;;;;;;;;;;;;5029761;28;19925;-80
2023/04/03 10:35:31;;;;;;;;;;;;;;;;;;5035793;28;19932;-81
2023/04/03 10:37:58;;;;;;;;;;;;;;;;;;5043232;28;19929;-80
2023/04/03 10:40:26;;;;;;;;;;;;;;;;;;5028786;28;19925;-80
2023/04/03 10:42:54;;;;;;;;;;;;;;;;;;5029455;28;19926;-80
2023/04/03 10:45:27;;;;;;;;;;;;;;;;;;5028549;28;20481;-80
2023/04/03 10:47:54;;;;;;;;;;;;;;;;;;5025585;28;19936;-81
2023/04/03 10:50:22;;;;;;;;;;;;;;;;;;5029796;28;20397;-81
2023/04/03 10:52:49;;;;;;;;;;;;;;;;;;5029834;28;19929;-81
2023/04/03 10:55:17;;;;;;;;;;;;;;;;;;5029030;28;19929;-81
2023/04/03 10:57:44;;;;;;;;;;;;;;;;;;5027773;28;19929;-80
2023/04/03 11:00:12;;;;;;;;;;;;;;;;;;5030575;28;20393;-80
2023/04/03 11:02:39;;;;;;;;;;;;;;;;;;5027298;28;19933;-81
2023/04/03 11:05:09;;;;;;;;;;;;;;;;;;5033755;28;19929;-80
2023/04/03 11:07:42;;;;;;;;;;;;;;;;;;5028802;28;19936;-80
2023/04/03 11:10:10;;;;;;;;;;;;;;;;;;5046471;28;21483;-81
2023/04/03 11:12:37;;;;;;;;;;;;;;;;;;5023592;28;19940;-80
2023/04/03 11:15:05;;;;;;;;;;;;;;;;;;5021359;28;19929;-80
2023/04/03 11:17:32;;;;;;;;;;;;;;;;;;5023826;28;19925;-81
2023/04/03 11:20:01;;;;;;;;;;;;;;;;;;5038789;28;20089;-80
2023/04/03 11:22:28;;;;;;;;;;;;;;;;;;5023306;28;19925;-81
2023/04/03 11:24:56;;;;;;;;;;;;;;;;;;5000675;28;19929;-85
2023/04/03 11:27:24;;;;;;;;;;;;;;;;;;5011808;28;20405;-80
2023/04/03 11:29:56;;;;;;;;;;;;;;;;;;5007594;28;19933;-80
2023/04/03 11:32:24;;;;;;;;;;;;;;;;;;5020759;28;20396;-82
2023/04/03 11:34:58;;;;;;;;;;;;;;;;;;5005896;28;19940;-80
2023/04/03 11:37:26;;;;;;;;;;;;;;;;;;5023504;28;19933;-81
2023/04/03 11:39:54;;;;;;;;;;;;;;;;;;5009797;28;19933;-81
2023/04/03 11:42:22;;;;;;;;;;;;;;;;;;5007035;28;20094;-81
2023/04/03 11:44:49;;;;;;;;;;;;;;;;;;5005242;28;19933;-82
2023/04/03 11:47:17;;;;;;;;;;;;;;;;;;5007419;28;20012;-82
2023/04/03 11:49:45;;;;;;;;;;;;;;;;;;5026806;28;19941;-80
2023/04/03 11:52:13;;;;;;;;;;;;;;;;;;5006729;28;19940;-81
2023/04/03 11:54:46;;;;;;;;;;;;;;;;;;5007166;28;20610;-81
2023/04/03 11:57:13;;;;;;;;;;;;;;;;;;5013710;28;19929;-81
2023/04/03 11:59:41;;;;;;;;;;;;;;;;;;5010623;28;20393;-81
2023/04/03 12:02:09;;;;;;;;;;;;;;;;;;5010541;28;20059;-82
2023/04/03 12:04:37;;;;;;;;;;;;;;;;;;5009037;28;19940;-81
2023/04/03 12:07:09;;;;;;;;;;;;;;;;;;5011470;28;20763;-80
2023/04/03 12:09:42;;;;;;;;;;;;;;;;;;5011769;28;19936;-81
2023/04/03 12:12:09;;;;;;;;;;;;;;;;;;5004443;28;19933;-81
2023/04/03 12:14:37;;;;;;;;;;;;;;;;;;5003774;28;19937;-81
2023/04/03 12:17:05;;;;;;;;;;;;;;;;;;5006417;28;21602;-81
2023/04/03 12:19:33;;;;;;;;;;;;;;;;;;5011624;28;19956;-82
2023/04/03 12:22:00;;;;;;;;;;;;;;;;;;5011118;28;19940;-81
2023/04/03 12:24:28;;;;;;;;;;;;;;;;;;4979794;28;19940;-81
2023/04/03 12:26:55;;;;;;;;;;;;;;;;;;5007345;28;19933;-81
2023/04/03 12:29:28;;;;;;;;;;;;;;;;;;5021669;28;19933;-81
2023/04/03 12:31:56;;;;;;;;;;;;;;;;;;5004458;28;19933;-81
2023/04/03 12:34:23;;;;;;;;;;;;;;;;;;5007560;28;19948;-81
2023/04/03 12:36:51;;;;;;;;;;;;;;;;;;4999200;28;19933;-80
2023/04/03 12:39:18;;;;;;;;;;;;;;;;;;5011159;28;19933;-81
2023/04/03 12:41:51;;;;;;;;;;;;;;;;;;5007454;28;19944;-81
2023/04/03 12:44:19;;;;;;;;;;;;;;;;;;5009048;28;20366;-80
2023/04/03 12:46:46;;;;;;;;;;;;;;;;;;5003081;28;20282;-83
2023/04/03 12:49:19;;;;;;;;;;;;;;;;;;5020007;28;19937;-82
2023/04/03 12:51:51;;;;;;;;;;;;;;;;;;5007737;28;19933;-80
2023/04/03 12:54:19;;;;;;;;;;;;;;;;;;5012420;28;19987;-80
2023/04/03 12:56:46;;;;;;;;;;;;;;;;;;5005905;28;19925;-80
2023/04/03 12:59:14;;;;;;;;;;;;;;;;;;5003010;28;19932;-80
2023/04/03 13:01:46;;;;;;;;;;;;;;;;;;5006290;28;19933;-80
2023/04/03 13:04:14;;;;;;;;;;;;;;;;;;5002707;28;20675;-80
2023/04/03 13:06:42;;;;;;;;;;;;;;;;;;4997690;28;21324;-82
2023/04/03 13:09:09;;;;;;;;;;;;;;;;;;5019313;28;19933;-80
2023/04/03 13:11:42;;;;;;;;;;;;;;;;;;5005904;28;19925;-80
2023/04/03 13:14:09;;;;;;;;;;;;;;;;;;5002588;28;20130;-80
2023/04/03 13:16:41;;;;;;;;;;;;;;;;;;5018526;28;19933;-81
2023/04/03 13:19:13;;;;;;;;;;;;;;;;;;5031495;28;19909;-81
2023/04/03 13:21:41;;;;;;;;;;;;;;;;;;5001089;28;19937;-81
2023/04/03 13:27:14;;;;;;;;;;;;;;;;;;5004524;28;19929;-81
2023/04/03 13:29:49;;;;;;;;;;;;;;;;;;5025661;28;19933;-83
2023/04/03 13:32:16;;;;;;;;;;;;;;;;;;4999816;28;19948;-81
2023/04/03 13:34:44;;;;;;;;;;;;;;;;;;5004160;28;21325;-80
2023/04/03 13:37:11;;;;;;;;;;;;;;;;;;5004610;28;20397;-81
2023/04/03 13:39:39;;;;;;;;;;;;;;;;;;5002810;28;19944;-81
2023/04/03 13:42:21;;;;;;;;;;;;;;;;;;4976934;28;19934;-81
2023/04/03 13:44:48;;;;;;;;;;;;;;;;;;4961605;28;19930;-80
2023/04/03 13:47:16;;;;;;;;;;;;;;;;;;4979112;28;19934;-81
2023/04/03 13:49:43;;;;;;;;;;;;;;;;;;4982066;28;19929;-81
2023/04/03 13:52:11;;;;;;;;;;;;;;;;;;4967581;28;20013;-82
2023/04/03 13:54:40;;;;;;;;;;;;;;;;;;4968565;28;22543;-79
2023/04/03 13:57:08;;;;;;;;;;;;;;;;;;4986244;28;19933;-80
2023/04/03 13:59:36;;;;;;;;;;;;;;;;;;4973056;28;21266;-81
2023/04/03 14:02:03;;;;;;;;;;;;;;;;;;4970715;28;20033;-81
2023/04/03 14:04:36;;;;;;;;;;;;;;;;;;4985811;28;19933;-82
2023/04/03 14:07:03;;;;;;;;;;;;;;;;;;4979541;28;20333;-81
2023/04/03 14:09:36;;;;;;;;;;;;;;;;;;4964129;28;20393;-82
2023/04/03 14:12:04;;;;;;;;;;;;;;;;;;4965531;28;19933;-80
2023/04/03 14:14:32;;;;;;;;;;;;;;;;;;4963381;28;20438;-81
2023/04/03 14:17:05;;;;;;;;;;;;;;;;;;4976966;28;20634;-81
2023/04/03 14:19:32;;;;;;;;;;;;;;;;;;4996872;28;19940;-82
2023/04/03 14:22:00;;;;;;;;;;;;;;;;;;5009691;28;19933;-82
2023/04/03 14:24:28;;;;;;;;;;;;;;;;;;4977327;28;20090;-82
2023/04/03 14:26:55;;;;;;;;;;;;;;;;;;5020757;28;20607;-80
2023/04/03 14:29:28;;;;;;;;;;;;;;;;;;5000983;28;19933;-81
2023/04/03 14:31:55;;;;;;;;;;;;;;;;;;5007146;28;19933;-82
2023/04/03 14:34:23;;;;;;;;;;;;;;;;;;5011770;28;19933;-80
2023/04/03 14:36:55;;;;;;;;;;;;;;;;;;5018318;28;19933;-82
2023/04/03 14:39:23;;;;;;;;;;;;;;;;;;5005938;28;19933;-80
2023/04/03 14:41:50;;;;;;;;;;;;;;;;;;5003868;28;19934;-81
2023/04/03 14:44:18;;;;;;;;;;;;;;;;;;5004861;28;19933;-80
2023/04/03 14:46:46;;;;;;;;;;;;;;;;;;5002234;28;20585;-80
2023/04/03 14:49:18;;;;;;;;;;;;;;;;;;4999060;28;20298;-80
2023/04/03 14:51:52;;;;;;;;;;;;;;;;;;5004976;28;19944;-80
2023/04/03 14:54:24;;;;;;;;;;;;;;;;;;5008414;28;20376;-80
2023/04/03 14:56:52;;;;;;;;;;;;;;;;;;5001738;28;19929;-79
2023/04/03 14:59:21;;;;;;;;;;;;;;;;;;5001158;28;19937;-81
2023/04/03 15:01:48;;;;;;;;;;;;;;;;;;5008597;28;20311;-81
2023/04/03 15:04:16;;;;;;;;;;;;;;;;;;5003790;28;20020;-79
2023/04/03 15:06:43;;;;;;;;;;;;;;;;;;5001506;28;19956;-78
2023/04/03 15:09:11;;;;;;;;;;;;;;;;;;5021632;28;19936;-82
2023/04/03 15:11:44;;;;;;;;;;;;;;;;;;5007038;28;19933;-80
2023/04/03 15:14:11;;;;;;;;;;;;;;;;;;5004881;28;19941;-80
2023/04/03 15:16:44;;;;;;;;;;;;;;;;;;5024697;28;20321;-80
2023/04/03 15:19:12;;;;;;;;;;;;;;;;;;5021413;28;19933;-80
2023/04/03 15:21:44;;;;;;;;;;;;;;;;;;5003900;28;19933;-80
2023/04/03 15:24:12;;;;;;;;;;;;;;;;;;4984346;28;19940;-81
2023/04/03 15:26:44;;;;;;;;;;;;;;;;;;5002339;28;19933;-80
2023/04/03 15:29:12;;;;;;;;;;;;;;;;;;5002822;28;19933;-77
2023/04/03 15:31:39;;;;;;;;;;;;;;;;;;4999321;28;19948;-81
2023/04/03 15:34:07;;;;;;;;;;;;;;;;;;5001534;28;19933;-79
2023/04/03 15:36:34;;;;;;;;;;;;;;;;;;4997797;28;19940;-79
2023/04/03 15:39:02;;;;;;;;;;;;;;;;;;5001522;28;19933;-79
2023/04/03 15:41:30;;;;;;;;;;;;;;;;;;5002302;28;20275;-79
2023/04/03 15:43:57;;;;;;;;;;;;;;;;;;5006727;28;19929;-80
2023/04/03 15:46:25;;;;;;;;;;;;;;;;;;5027524;28;19958;-80
2023/04/03 15:48:52;;;;;;;;;;;;;;;;;;5001892;28;19933;-79
2023/04/03 15:51:25;;;;;;;;;;;;;;;;;;5018827;28;20421;-79
2023/04/03 15:53:53;;;;;;;;;;;;;;;;;;5010822;28;20286;-78
2023/04/03 15:56:20;;;;;;;;;;;;;;;;;;5021432;28;19933;-82
2023/04/03 15:58:53;;;;;;;;;;;;;;;;;;5007093;28;19929;-82
2023/04/03 16:01:21;;;;;;;;;;;;;;;;;;5007040;28;21058;-79
2023/04/03 16:03:48;;;;;;;;;;;;;;;;;;5012122;28;19933;-80
2023/04/03 16:06:16;;;;;;;;;;;;;;;;;;5004826;28;19933;-80
2023/04/03 16:08:43;;;;;;;;;;;;;;;;;;5011666;28;19940;-81
2023/04/03 16:11:16;;;;;;;;;;;;;;;;;;5008815;28;20397;-80
2023/04/03 16:13:43;;;;;;;;;;;;;;;;;;5009079;28;19933;-79
2023/04/03 16:16:16;;;;;;;;;;;;;;;;;;5026278;28;19925;-80
2023/04/03 16:18:43;;;;;;;;;;;;;;;;;;5005422;28;19933;-80
2023/04/03 16:21:13;;;;;;;;;;;;;;;;;;5005947;28;19967;-80
2023/04/03 16:23:41;;;;;;;;;;;;;;;;;;4986863;28;19933;-80
2023/04/03 16:26:08;;;;;;;;;;;;;;;;;;5002924;28;19933;-82
2023/04/03 16:28:36;;;;;;;;;;;;;;;;;;5017285;28;19944;-80
2023/04/03 16:31:03;;;;;;;;;;;;;;;;;;5008087;28;19940;-79
2023/04/03 16:33:31;;;;;;;;;;;;;;;;;;5006842;28;19940;-79
2023/04/03 16:35:58;;;;;;;;;;;;;;;;;;5001405;28;19936;-81
2023/04/03 16:38:26;;;;;;;;;;;;;;;;;;5019874;28;19944;-80
2023/04/03 16:40:56;;;;;;;;;;;;;;;;;;5006351;28;20478;-78
2023/04/03 16:43:23;;;;;;;;;;;;;;;;;;5010605;28;19933;-80
2023/04/03 16:45:51;;;;;;;;;;;;;;;;;;5017778;28;21269;-80
2023/04/03 16:48:24;;;;;;;;;;;;;;;;;;5006288;28;19932;-79
2023/04/03 16:50:53;;;;;;;;;;;;;;;;;;4999932;28;19944;-80
2023/04/03 16:53:20;;;;;;;;;;;;;;;;;;5001385;28;19933;-80
2023/04/03 16:55:48;;;;;;;;;;;;;;;;;;5008792;28;19960;-80
2023/04/03 16:58:15;;;;;;;;;;;;;;;;;;5005634;28;19933;-79
2023/04/03 17:00:43;;;;;;;;;;;;;;;;;;5004003;28;20468;-78
2023/04/03 17:03:15;;;;;;;;;;;;;;;;;;5013141;28;19940;-80